createdAt,value
2018-04-24T00:00:18.889Z,98663
2018-04-24T00:02:46.455Z,98659
2018-04-24T00:05:14.018Z,98669
2018-04-24T00:07:41.587Z,98671
2018-04-24T00:10:09.180Z,98662
2018-04-24T00:12:36.750Z,98665
2018-04-24T00:15:04.312Z,98667
2018-04-24T00:17:31.890Z,98663
2018-04-24T00:19:59.477Z,98656
2018-04-24T00:22:27.105Z,98660
2018-04-24T00:24:54.688Z,98657
2018-04-24T00:27:22.323Z,98661
2018-04-24T00:29:49.956Z,98660
2018-04-24T00:32:17.566Z,98659
2018-04-24T00:34:45.133Z,98666
2018-04-24T00:37:12.687Z,98668
2018-04-24T00:39:40.249Z,98667
2018-04-24T00:42:07.833Z,98665
2018-04-24T00:44:35.429Z,98661
2018-04-24T00:47:03.017Z,98673
2018-04-24T00:49:30.616Z,98670
2018-04-24T00:51:58.200Z,98661
2018-04-24T00:54:25.969Z,98660
2018-04-24T00:56:53.565Z,98665
2018-04-24T00:59:21.148Z,98659
2018-04-24T01:01:48.796Z,98664
2018-04-24T01:04:16.382Z,98659
2018-04-24T01:06:44.028Z,98670
2018-04-24T01:09:11.568Z,98673
2018-04-24T01:11:39.162Z,98671
2018-04-24T01:14:06.886Z,98661
2018-04-24T01:16:34.476Z,98666
2018-04-24T01:36:19.660Z,98686
2018-04-24T01:38:47.244Z,98678
2018-04-24T01:41:14.825Z,98682
2018-04-24T01:43:42.408Z,98693
2018-04-24T01:46:09.981Z,98686
2018-04-24T01:48:37.546Z,98693
2018-04-24T01:51:05.103Z,98689
2018-04-24T02:10:52.194Z,98686
2018-04-24T02:13:19.773Z,98700
2018-04-24T02:15:47.393Z,98692
2018-04-24T02:18:14.956Z,98690
2018-04-24T02:20:42.525Z,98700
2018-04-24T02:23:10.090Z,98692
2018-04-24T02:25:37.653Z,98694
2018-04-24T02:28:05.234Z,98690
2018-04-24T02:30:32.803Z,98692
2018-04-24T02:33:00.359Z,98701
2018-04-24T02:35:27.944Z,98703
2018-04-24T02:37:55.534Z,98695
2018-04-24T02:57:41.791Z,98705
2018-04-24T03:00:09.382Z,98697
2018-04-24T03:02:36.949Z,98704
2018-04-24T03:05:04.516Z,98701
2018-04-24T03:07:32.070Z,98709
2018-04-24T03:27:17.538Z,98706
2018-04-24T03:47:04.244Z,98695
2018-04-24T03:49:31.820Z,98702
2018-04-24T04:09:17.238Z,98705
2018-04-24T04:11:44.823Z,98693
2018-04-24T04:14:12.441Z,98704
2018-04-24T04:34:05.481Z,98715
2018-04-24T04:53:50.258Z,98734
2018-04-24T04:56:18.013Z,98744
2018-04-24T05:16:04.997Z,98758
2018-04-24T05:18:32.575Z,98759
2018-04-24T05:21:00.157Z,98765
2018-04-24T05:23:27.746Z,98768
2018-04-24T05:25:55.353Z,98776
2018-04-24T05:28:22.922Z,98780
2018-04-24T05:30:50.485Z,98776
2018-04-24T05:33:18.099Z,98772
2018-04-24T05:35:45.720Z,98770
2018-04-24T05:38:13.242Z,98763
2018-04-24T05:40:40.867Z,98761
2018-04-24T05:43:08.435Z,98756
2018-04-24T05:45:36.051Z,98748
2018-04-24T05:48:03.642Z,98748
2018-04-24T05:50:31.208Z,98748
2018-04-24T05:52:58.848Z,98744
2018-04-24T05:55:26.397Z,98738
2018-04-24T05:57:53.982Z,98757
2018-04-24T06:00:21.553Z,98752
2018-04-24T06:02:49.174Z,98754
2018-04-24T06:05:16.753Z,98751
2018-04-24T06:07:44.369Z,98754
2018-04-24T06:10:11.952Z,98758
2018-04-24T06:12:39.509Z,98768
2018-04-24T06:15:07.156Z,98776
2018-04-24T06:17:34.686Z,98766
2018-04-24T06:20:02.293Z,98766
2018-04-24T06:22:29.925Z,98765
2018-04-24T06:24:57.486Z,98762
2018-04-24T06:27:25.121Z,98769
2018-04-24T06:29:52.752Z,98769
2018-04-24T06:32:20.332Z,98764
2018-04-24T06:34:47.942Z,98766
2018-04-24T06:37:15.536Z,98767
2018-04-24T06:39:43.096Z,98768
2018-04-24T06:42:10.723Z,98767
2018-04-24T06:44:38.316Z,98773
2018-04-24T06:47:05.901Z,98769
2018-04-24T06:49:33.520Z,98773
2018-04-24T06:52:01.081Z,98775
2018-04-24T06:54:28.663Z,98782
2018-04-24T06:56:56.233Z,98779
2018-04-24T06:59:23.829Z,98766
2018-04-24T07:01:51.405Z,98770
2018-04-24T07:04:19.006Z,98772
2018-04-24T07:06:46.631Z,98773
2018-04-24T07:09:14.207Z,98785
2018-04-24T07:11:41.769Z,98770
2018-04-24T07:14:09.338Z,98768
2018-04-24T07:16:36.912Z,98758
2018-04-24T07:19:04.486Z,98762
2018-04-24T07:21:32.442Z,98761
2018-04-24T07:24:00.016Z,98768
2018-04-24T07:26:27.611Z,98770
2018-04-24T07:28:55.212Z,98771
2018-04-24T07:31:22.776Z,98772
2018-04-24T07:33:50.414Z,98773
2018-04-24T07:36:17.993Z,98767
2018-04-24T07:38:45.572Z,98768
2018-04-24T07:41:13.177Z,98774
2018-04-24T07:43:40.730Z,98782
2018-04-24T07:46:08.301Z,98782
2018-04-24T07:48:35.871Z,98778
2018-04-24T07:51:03.448Z,98783
2018-04-24T07:53:31.006Z,98780
2018-04-24T07:55:58.604Z,98780
2018-04-24T07:58:26.171Z,98775
2018-04-24T08:00:53.743Z,98771
2018-04-24T08:03:21.313Z,98768
2018-04-24T08:05:48.947Z,98778
2018-04-24T08:08:16.572Z,98776
2018-04-24T08:10:44.101Z,98781
2018-04-24T08:13:11.660Z,98775
2018-04-24T08:15:39.247Z,98778
2018-04-24T08:18:06.806Z,98776
2018-04-24T08:20:34.428Z,98775
2018-04-24T08:23:01.994Z,98775
2018-04-24T08:25:29.561Z,98779
2018-04-24T08:27:57.128Z,98776
2018-04-24T08:30:24.717Z,98781
2018-04-24T08:32:52.278Z,98780
2018-04-24T08:35:19.838Z,98779
2018-04-24T08:37:47.440Z,98779
2018-04-24T08:40:15.014Z,98772
2018-04-24T08:42:42.640Z,98774
2018-04-24T08:45:10.206Z,98772
2018-04-24T08:47:37.806Z,98774
2018-04-24T08:50:05.381Z,98771
2018-04-24T08:52:32.977Z,98779
2018-04-24T08:55:00.563Z,98780
2018-04-24T08:57:28.181Z,98771
2018-04-24T08:59:55.762Z,98772
2018-04-24T09:02:23.365Z,98777
2018-04-24T09:04:51.760Z,98781
2018-04-24T09:07:19.345Z,98775
2018-04-24T09:09:46.940Z,98779
2018-04-24T09:12:14.517Z,98774
2018-04-24T09:14:42.092Z,98773
2018-04-24T09:17:09.695Z,98774
2018-04-24T09:19:37.270Z,98765
2018-04-24T09:22:04.846Z,98775
2018-04-24T09:24:32.405Z,98769
2018-04-24T09:27:00.073Z,98769
2018-04-24T09:29:27.611Z,98773
2018-04-24T09:31:55.185Z,98760
2018-04-24T09:34:22.752Z,98773
2018-04-24T09:36:50.337Z,98766
2018-04-24T09:39:17.909Z,98773
2018-04-24T09:41:45.480Z,98767
2018-04-24T09:44:13.097Z,98771
2018-04-24T09:46:40.661Z,98771
2018-04-24T09:49:08.265Z,98770
2018-04-24T09:51:35.885Z,98772
2018-04-24T09:54:03.472Z,98765
2018-04-24T09:56:31.046Z,98764
2018-04-24T09:58:58.630Z,98762
2018-04-24T10:01:27.065Z,98771
2018-04-24T10:03:54.639Z,98759
2018-04-24T10:06:22.200Z,98754
2018-04-24T10:08:49.783Z,98761
2018-04-24T10:11:17.394Z,98771
2018-04-24T10:13:45.004Z,98776
2018-04-24T10:16:12.597Z,98766
2018-04-24T10:18:40.192Z,98766
2018-04-24T10:21:07.760Z,98756
2018-04-24T10:23:35.391Z,98759
2018-04-24T10:26:02.954Z,98758
2018-04-24T10:28:30.523Z,98750
2018-04-24T10:30:58.087Z,98751
2018-04-24T10:33:25.697Z,98756
2018-04-24T10:35:53.319Z,98744
2018-04-24T10:38:20.886Z,98734
2018-04-24T10:40:48.500Z,98736
2018-04-24T10:43:16.348Z,98733
2018-04-24T10:45:43.990Z,98746
2018-04-24T10:48:11.575Z,98734
2018-04-24T11:07:58.614Z,98718
2018-04-24T11:10:26.186Z,98718
2018-04-24T11:12:53.761Z,98716
2018-04-24T11:15:21.346Z,98720
2018-04-24T11:17:48.927Z,98711
2018-04-24T11:20:16.501Z,98707
2018-04-24T11:22:44.170Z,98706
2018-04-24T11:25:11.704Z,98709
2018-04-24T11:27:39.320Z,98709
2018-04-24T11:30:06.889Z,98709
2018-04-24T11:32:34.588Z,98711
2018-04-24T11:35:02.115Z,98704
2018-04-24T11:37:29.698Z,98702
2018-04-24T11:39:57.324Z,98696
2018-04-24T11:42:24.909Z,98696
2018-04-24T11:44:52.486Z,98693
2018-04-24T11:47:20.078Z,98693
2018-04-24T11:49:47.650Z,98685
2018-04-24T11:52:15.234Z,98684
2018-04-24T11:54:42.824Z,98679
2018-04-24T11:57:10.458Z,98683
2018-04-24T11:59:38.046Z,98679
2018-04-24T12:02:05.668Z,98690
2018-04-24T12:04:33.289Z,98687
2018-04-24T12:07:00.865Z,98682
2018-04-24T12:09:28.445Z,98688
2018-04-24T12:11:56.027Z,98688
2018-04-24T12:14:23.598Z,98678
2018-04-24T12:16:51.172Z,98682
2018-04-24T12:19:18.782Z,98680
2018-04-24T12:21:46.350Z,98674
2018-04-24T12:24:13.938Z,98681
2018-04-24T12:26:41.513Z,98676
2018-04-24T12:29:09.087Z,98668
2018-04-24T12:31:36.653Z,98675
2018-04-24T12:34:04.218Z,98667
2018-04-24T12:36:31.791Z,98671
2018-04-24T12:38:59.373Z,98679
2018-04-24T12:41:26.942Z,98672
2018-04-24T12:43:54.510Z,98666
2018-04-24T12:46:22.076Z,98658
2018-04-24T12:48:49.638Z,98659
2018-04-24T12:51:17.213Z,98660
2018-04-24T12:53:45.551Z,98661
2018-04-24T12:56:13.128Z,98656
2018-04-24T12:58:40.770Z,98652
2018-04-24T13:01:08.333Z,98644
2018-04-24T13:03:36.135Z,98639
2018-04-24T13:06:03.711Z,98638
2018-04-24T13:08:31.301Z,98632
2018-04-24T13:10:58.890Z,98639
2018-04-24T13:13:26.554Z,98632
2018-04-24T13:15:54.186Z,98634
2018-04-24T13:18:21.772Z,98637
2018-04-24T13:38:09.465Z,98573
2018-04-24T13:40:37.078Z,98578
2018-04-24T13:43:04.668Z,98571
2018-04-24T13:45:32.265Z,98570
2018-04-24T13:47:59.834Z,98565
2018-04-24T13:50:27.432Z,98561
2018-04-24T13:52:55.049Z,98541
2018-04-24T13:55:22.685Z,98558
2018-04-24T13:57:50.213Z,98557
2018-04-24T14:00:17.795Z,98552
2018-04-24T14:02:45.365Z,98553
2018-04-24T14:05:12.925Z,98552
2018-04-24T14:07:40.505Z,98562
2018-04-24T14:10:08.091Z,98559
2018-04-24T14:12:35.672Z,98555
2018-04-24T14:32:21.406Z,98563
2018-04-24T14:52:07.833Z,98541
2018-04-24T14:54:35.438Z,98539
2018-04-24T14:57:02.997Z,98541
2018-04-24T14:59:30.620Z,98513
2018-04-24T15:01:58.186Z,98523
2018-04-24T15:04:25.805Z,98523
2018-04-24T15:06:53.428Z,98527
2018-04-24T15:09:20.989Z,98522
2018-04-24T15:11:48.564Z,98513
2018-04-24T15:14:16.149Z,98518
2018-04-24T15:16:43.744Z,98524
2018-04-24T15:19:11.339Z,98519
2018-04-24T15:21:38.988Z,98511
2018-04-24T15:24:06.544Z,98509
2018-04-24T15:26:34.120Z,98506
2018-04-24T15:29:01.756Z,98524
2018-04-24T15:48:48.419Z,98505
2018-04-24T16:08:34.855Z,98480
2018-04-24T16:11:02.447Z,98482
2018-04-24T16:30:48.561Z,98469
2018-04-24T16:33:16.153Z,98472
2018-04-24T16:35:43.802Z,98468
2018-04-24T16:38:11.333Z,98468
2018-04-24T16:40:38.939Z,98467
2018-04-24T16:43:06.571Z,98467
2018-04-24T16:45:34.181Z,98467
2018-04-24T16:48:01.768Z,98476
2018-04-24T16:50:29.371Z,98467
2018-04-24T16:52:56.963Z,98477
2018-04-24T16:55:24.602Z,98470
2018-04-24T16:57:52.214Z,98470
2018-04-24T17:00:19.813Z,98460
2018-04-24T17:02:47.425Z,98455
2018-04-24T17:22:34.344Z,98445
2018-04-24T17:25:01.942Z,98455
2018-04-24T17:27:29.565Z,98452
2018-04-24T17:29:57.162Z,98441
2018-04-24T17:32:24.815Z,98443
2018-04-24T17:34:52.493Z,98443
2018-04-24T17:37:20.169Z,98438
2018-04-24T17:39:47.842Z,98441
2018-04-24T17:42:15.528Z,98435
2018-04-24T18:02:02.986Z,98426
2018-04-24T18:04:30.589Z,98433
2018-04-24T18:06:58.323Z,98422
2018-04-24T18:09:25.896Z,98424
2018-04-24T18:11:53.501Z,98427
2018-04-24T18:34:33.319Z,98417
2018-04-24T18:37:00.845Z,98423
2018-04-24T18:56:45.717Z,98436
2018-04-24T18:59:13.320Z,98433
2018-04-24T19:01:40.909Z,98434
2018-04-24T19:21:28.001Z,98424
2018-04-24T19:23:55.574Z,98417
2018-04-24T19:26:23.145Z,98417
2018-04-24T19:28:50.730Z,98424
2018-04-24T19:31:23.889Z,98424
2018-04-24T19:33:51.684Z,98424
2018-04-24T19:36:19.274Z,98427
2018-04-24T19:38:52.414Z,98421
2018-04-24T19:41:25.506Z,98425
2018-04-24T19:43:53.346Z,98427
2018-04-24T19:46:20.960Z,98422
2018-04-24T19:48:54.058Z,98425
2018-04-24T19:51:21.664Z,98430
2018-04-24T19:53:49.266Z,98422
2018-04-24T19:56:16.843Z,98431
2018-04-24T20:16:02.617Z,98400
2018-04-24T20:35:48.863Z,98378
2018-04-24T20:38:16.488Z,98378
2018-04-24T20:40:44.065Z,98375
2018-04-24T20:43:11.654Z,98372
2018-04-24T20:45:39.228Z,98370
2018-04-24T20:48:06.798Z,98367
2018-04-24T20:50:34.368Z,98372
2018-04-24T20:53:01.947Z,98373
2018-04-24T20:55:29.547Z,98373
2018-04-24T20:57:57.120Z,98373
2018-04-24T21:00:24.693Z,98375
2018-04-24T21:02:52.296Z,98358
2018-04-24T21:05:19.874Z,98368
2018-04-24T21:07:47.445Z,98370
2018-04-24T21:10:15.027Z,98365
2018-04-24T21:12:42.611Z,98359
2018-04-24T21:15:10.177Z,98361
2018-04-24T21:17:37.813Z,98362
2018-04-24T21:20:05.396Z,98352
2018-04-24T21:22:32.986Z,98349
2018-04-24T21:25:00.557Z,98360
2018-04-24T21:27:28.180Z,98351
2018-04-24T21:29:55.773Z,98361
2018-04-24T21:32:23.377Z,98358
2018-04-24T21:34:50.986Z,98356
2018-04-24T21:37:18.546Z,98349
2018-04-24T21:39:46.116Z,98348
2018-04-24T21:42:13.681Z,98340
2018-04-24T21:44:41.266Z,98345
2018-04-24T21:47:08.829Z,98338
2018-04-24T21:49:36.427Z,98339
2018-04-24T21:52:04.018Z,98336
2018-04-24T21:54:31.656Z,98337
2018-04-24T21:56:59.228Z,98334
2018-04-24T21:59:26.818Z,98345
2018-04-24T22:19:13.732Z,98324
2018-04-24T22:21:41.315Z,98321
2018-04-24T22:24:08.916Z,98315
2018-04-24T22:26:36.545Z,98319
2018-04-24T22:46:22.247Z,98311
2018-04-24T22:48:49.838Z,98315
2018-04-24T22:51:17.444Z,98311
2018-04-24T22:53:45.023Z,98316
2018-04-24T22:56:12.627Z,98316
2018-04-24T22:58:40.242Z,98316
2018-04-24T23:01:07.838Z,98313
2018-04-24T23:03:35.409Z,98309
2018-04-24T23:06:02.992Z,98311
2018-04-24T23:08:30.578Z,98310
2018-04-24T23:11:09.963Z,98314
2018-04-24T23:13:49.239Z,98311
2018-04-24T23:16:28.589Z,98305
2018-04-24T23:19:07.939Z,98309
2018-04-24T23:21:35.062Z,98307
2018-04-24T23:24:02.649Z,98301
2018-04-24T23:26:30.209Z,98302
2018-04-24T23:28:57.864Z,98302
2018-04-24T23:31:25.432Z,98287
2018-04-24T23:33:52.998Z,98285
2018-04-24T23:36:20.652Z,98284
2018-04-24T23:38:48.234Z,98293
2018-04-24T23:41:15.817Z,98288
2018-04-24T23:43:43.414Z,98287
2018-04-24T23:46:10.998Z,98284
2018-04-24T23:48:38.595Z,98275
2018-04-24T23:51:06.178Z,98275
2018-04-24T23:53:33.763Z,98266
2018-04-24T23:56:01.338Z,98255
2018-04-24T23:58:28.942Z,98260
